Time;durP1;ratioP1;P1;durP2;ratioP2;P2;SDS_P1;SDS_P2;PMS_P1;PMS_P2;Temp;Humidity;BMP_temperature;BMP_pressure;BME280_temperature;BME280_humidity;BME280_pressure;Samples;Min_cycle;Max_cycle;Signal;HPM_P1;HPM_P2
2020/12/26 00:02:02;;;;;;;4.30;0.90;;;3.40;99.90;;;;;;4992207;28;20211;-75
2020/12/26 00:04:29;;;;;;;1.87;0.97;;;3.30;99.90;;;;;;4992175;28;20205;-75
2020/12/26 00:06:55;;;;;;;3.10;1.57;;;3.50;99.90;;;;;;4992339;28;20237;-75
2020/12/26 00:09:22;;;;;;;2.03;1.20;;;3.60;99.90;;;;;;4992274;28;20205;-75
2020/12/26 00:11:51;;;;;;;3.67;1.83;;;3.80;99.90;;;;;;4992226;28;20201;-75
2020/12/26 00:14:17;;;;;;;1.93;1.57;;;3.90;99.90;;;;;;4992134;28;20209;-75
2020/12/26 00:16:44;;;;;;;3.03;1.57;;;4.00;99.90;;;;;;4991959;28;20211;-75
2020/12/26 00:19:14;;;;;;;6.40;1.30;;;4.10;99.90;;;;;;4991890;28;20239;-75
2020/12/26 00:21:41;;;;;;;4.40;1.30;;;4.10;99.90;;;;;;4991997;28;20313;-74
2020/12/26 00:24:07;;;;;;;6.97;2.03;;;4.10;99.90;;;;;;4991650;28;20614;-75
2020/12/26 00:26:34;;;;;;;5.60;1.57;;;4.20;99.90;;;;;;4991793;28;20209;-74
2020/12/26 00:29:01;;;;;;;4.03;1.40;;;4.20;99.90;;;;;;4992955;28;20272;-75
2020/12/26 00:31:28;;;;;;;4.57;1.70;;;4.20;99.90;;;;;;4995985;28;20204;-75
2020/12/26 00:33:54;;;;;;;4.07;1.27;;;4.20;99.90;;;;;;4995529;28;20204;-75
2020/12/26 00:36:20;;;;;;;4.43;2.07;;;4.20;99.90;;;;;;4995783;28;20229;-75
2020/12/26 00:38:47;;;;;;;3.17;1.13;;;4.20;99.90;;;;;;4995520;28;20555;-74
2020/12/26 00:41:14;;;;;;;3.93;1.37;;;4.20;99.90;;;;;;4995425;28;20212;-75
2020/12/26 00:43:40;;;;;;;3.80;1.50;;;4.20;99.90;;;;;;4995527;28;20209;-75
2020/12/26 00:46:08;;;;;;;2.43;1.53;;;4.20;99.90;;;;;;4995544;28;20205;-75
2020/12/26 00:48:34;;;;;;;3.50;1.17;;;4.20;99.90;;;;;;4995327;28;20335;-75
2020/12/26 00:51:02;;;;;;;3.67;1.43;;;4.20;99.90;;;;;;4995592;28;20205;-75
2020/12/26 00:53:29;;;;;;;4.00;1.30;;;4.20;99.90;;;;;;4995820;28;20212;-74
2020/12/26 00:55:55;;;;;;;1.40;1.30;;;4.20;99.90;;;;;;4995348;28;20676;-74
2020/12/26 00:58:22;;;;;;;4.07;1.93;;;4.20;99.90;;;;;;4995298;28;20204;-75
2020/12/26 01:00:49;;;;;;;3.63;1.30;;;4.10;99.90;;;;;;4995259;28;20209;-74
2020/12/26 01:03:16;;;;;;;3.83;1.67;;;4.10;99.90;;;;;;4995100;28;20628;-74
2020/12/26 01:05:42;;;;;;;5.50;2.03;;;4.20;99.90;;;;;;4995243;28;20201;-75
2020/12/26 01:08:09;;;;;;;5.23;2.13;;;4.10;99.90;;;;;;4995276;28;20266;-75
2020/12/26 01:10:35;;;;;;;2.63;1.50;;;4.10;99.90;;;;;;4995010;28;20216;-75
2020/12/26 01:13:02;;;;;;;4.83;1.43;;;4.10;99.90;;;;;;4995304;28;20212;-75
2020/12/26 01:15:29;;;;;;;3.93;1.60;;;4.10;99.90;;;;;;4995136;28;20205;-75
2020/12/26 01:17:55;;;;;;;1.87;1.13;;;4.10;99.90;;;;;;4994892;28;20207;-75
2020/12/26 01:20:22;;;;;;;3.57;1.20;;;4.10;99.90;;;;;;4994983;28;20204;-74
2020/12/26 01:22:49;;;;;;;2.23;1.20;;;4.10;99.90;;;;;;4994831;28;20220;-75
2020/12/26 01:25:15;;;;;;;2.17;1.27;;;4.10;99.90;;;;;;4994833;28;20209;-75
2020/12/26 01:27:42;;;;;;;5.80;1.83;;;4.10;99.90;;;;;;4994639;28;20236;-74
2020/12/26 01:30:08;;;;;;;4.80;1.40;;;4.10;99.90;;;;;;4994583;28;20204;-75
2020/12/26 01:32:35;;;;;;;3.13;1.30;;;4.10;99.90;;;;;;4994844;28;20263;-75
2020/12/26 01:35:01;;;;;;;10.17;1.73;;;4.10;99.90;;;;;;4994868;28;20216;-75
2020/12/26 01:37:29;;;;;;;7.90;1.83;;;4.10;99.90;;;;;;4994616;28;20671;-75
2020/12/26 01:39:55;;;;;;;6.57;1.30;;;4.10;99.90;;;;;;4993777;28;20755;-75
2020/12/26 01:42:22;;;;;;;2.47;1.17;;;4.10;99.90;;;;;;4993821;28;20236;-75
2020/12/26 01:44:50;;;;;;;2.93;1.03;;;4.10;99.90;;;;;;4994319;28;20201;-75
2020/12/26 01:47:17;;;;;;;2.67;1.43;;;4.10;99.90;;;;;;4994531;28;20228;-75
2020/12/26 01:49:44;;;;;;;2.33;1.50;;;4.10;99.90;;;;;;4994315;28;20565;-75
2020/12/26 01:52:13;;;;;;;4.10;1.30;;;4.10;99.90;;;;;;4994311;28;20205;-75
2020/12/26 01:54:40;;;;;;;3.33;1.90;;;4.10;99.90;;;;;;4994222;28;20579;-76
2020/12/26 01:57:08;;;;;;;3.47;1.20;;;4.10;99.90;;;;;;4994194;28;20208;-74
2020/12/26 01:59:35;;;;;;;4.00;1.57;;;4.10;99.90;;;;;;4994408;28;20669;-75
2020/12/26 02:02:08;;;;;;;1.70;1.00;;;4.10;99.90;;;;;;4994306;28;20209;-75
2020/12/26 02:04:34;;;;;;;7.13;2.33;;;4.10;99.90;;;;;;4994318;28;20205;-74
2020/12/26 02:07:04;;;;;;;2.60;1.07;;;4.10;99.90;;;;;;4994247;28;20228;-76
2020/12/26 02:09:31;;;;;;;4.37;1.43;;;4.10;99.90;;;;;;4994124;28;20208;-75
2020/12/26 02:11:58;;;;;;;4.07;1.30;;;4.10;99.90;;;;;;4993791;28;20583;-75
2020/12/26 02:14:25;;;;;;;6.13;1.50;;;4.10;99.90;;;;;;4994004;28;20204;-75
2020/12/26 02:16:52;;;;;;;4.00;2.03;;;4.10;99.90;;;;;;4993966;28;20210;-75
2020/12/26 02:19:21;;;;;;;2.37;1.30;;;4.10;99.90;;;;;;4993640;28;20208;-74
2020/12/26 02:21:48;;;;;;;4.20;1.60;;;4.10;99.90;;;;;;4993742;28;20201;-74
2020/12/26 02:24:16;;;;;;;2.77;0.87;;;4.10;99.90;;;;;;4993530;28;20212;-75
2020/12/26 02:26:42;;;;;;;3.27;1.50;;;4.10;99.90;;;;;;4993747;28;20212;-75
2020/12/26 02:29:09;;;;;;;1.80;0.90;;;4.10;99.90;;;;;;4993757;28;20201;-75
2020/12/26 02:31:36;;;;;;;2.73;1.43;;;4.10;99.90;;;;;;4993818;28;20255;-76
2020/12/26 02:34:03;;;;;;;2.87;1.20;;;4.20;99.90;;;;;;4993767;28;20205;-74
2020/12/26 02:36:30;;;;;;;3.27;1.00;;;4.10;99.90;;;;;;4993395;28;20208;-75
2020/12/26 02:38:56;;;;;;;3.37;1.03;;;4.10;99.90;;;;;;4993084;28;20758;-76
2020/12/26 02:41:23;;;;;;;2.20;1.50;;;4.00;99.90;;;;;;4993503;28;20251;-75
2020/12/26 02:43:50;;;;;;;2.63;1.50;;;4.00;99.90;;;;;;4993294;28;20205;-75
2020/12/26 02:46:16;;;;;;;5.00;2.03;;;3.90;99.90;;;;;;4993143;28;20696;-75
2020/12/26 02:48:43;;;;;;;4.53;1.00;;;3.90;99.90;;;;;;4993133;28;20237;-75
2020/12/26 02:51:09;;;;;;;6.13;1.40;;;4.00;99.90;;;;;;4993046;28;20259;-75
2020/12/26 02:53:35;;;;;;;7.10;1.33;;;3.90;99.90;;;;;;4993188;28;20212;-75
2020/12/26 02:56:03;;;;;;;3.57;1.07;;;3.80;99.90;;;;;;4993223;28;20209;-75
2020/12/26 02:58:31;;;;;;;3.10;1.47;;;3.70;99.90;;;;;;4992996;28;20692;-75
2020/12/26 03:00:57;;;;;;;2.60;1.63;;;3.60;99.90;;;;;;4992907;28;20209;-75
2020/12/26 03:03:24;;;;;;;4.17;1.50;;;3.50;99.90;;;;;;4993078;28;20205;-75
2020/12/26 03:05:50;;;;;;;4.77;2.40;;;3.50;99.90;;;;;;4992858;28;20259;-75
2020/12/26 03:08:16;;;;;;;4.37;1.90;;;3.40;99.90;;;;;;4992758;28;20228;-75
2020/12/26 03:10:43;;;;;;;2.57;0.93;;;3.40;99.90;;;;;;4993013;28;20256;-75
2020/12/26 03:13:09;;;;;;;5.70;2.57;;;3.30;99.90;;;;;;4992927;28;20665;-75
2020/12/26 03:15:37;;;;;;;1.97;1.10;;;3.30;99.90;;;;;;4993151;28;20245;-75
2020/12/26 03:18:03;;;;;;;3.70;1.43;;;3.30;99.90;;;;;;4992784;28;20213;-74
2020/12/26 03:20:30;;;;;;;4.40;1.60;;;3.30;99.90;;;;;;4992561;28;21059;-75
2020/12/26 03:22:56;;;;;;;2.30;1.20;;;3.50;99.90;;;;;;4992668;28;20219;-75
2020/12/26 03:25:22;;;;;;;3.33;1.40;;;3.40;99.90;;;;;;4992506;28;20573;-75
2020/12/26 03:27:49;;;;;;;4.47;1.27;;;3.50;99.90;;;;;;4992510;28;20330;-75
2020/12/26 03:30:15;;;;;;;4.13;1.67;;;3.40;99.90;;;;;;4992637;28;20220;-75
2020/12/26 03:32:43;;;;;;;8.33;1.73;;;3.30;99.90;;;;;;4992415;28;20216;-75
2020/12/26 03:35:09;;;;;;;2.47;1.47;;;3.20;99.90;;;;;;4992616;28;20573;-75
2020/12/26 03:37:36;;;;;;;3.23;1.50;;;3.20;99.90;;;;;;4992913;28;20219;-75
2020/12/26 03:40:04;;;;;;;2.13;1.50;;;3.10;99.90;;;;;;4992506;28;20209;-75
2020/12/26 03:42:30;;;;;;;3.43;1.47;;;3.10;99.90;;;;;;4992349;28;20200;-75
2020/12/26 03:44:57;;;;;;;4.47;1.20;;;3.30;99.90;;;;;;4992451;28;20567;-75
2020/12/26 03:47:23;;;;;;;8.83;1.67;;;3.40;99.90;;;;;;4992269;28;20727;-75
2020/12/26 03:49:50;;;;;;;5.17;2.10;;;3.40;99.90;;;;;;4992155;28;20673;-75
2020/12/26 03:52:17;;;;;;;5.57;1.67;;;3.40;99.90;;;;;;4992443;28;20204;-75
2020/12/26 03:54:43;;;;;;;5.13;1.47;;;3.50;99.90;;;;;;4992194;28;20688;-74
2020/12/26 03:57:10;;;;;;;4.33;1.97;;;3.60;99.90;;;;;;4992416;28;20212;-75
2020/12/26 03:59:36;;;;;;;2.03;1.07;;;3.60;99.90;;;;;;4992184;28;20212;-75
2020/12/26 04:02:02;;;;;;;1.90;1.03;;;3.60;99.90;;;;;;4992199;28;20212;-74
2020/12/26 04:04:29;;;;;;;3.83;2.20;;;3.60;99.90;;;;;;4993867;28;20690;-75
2020/12/26 04:06:56;;;;;;;2.20;1.10;;;3.50;99.90;;;;;;4996348;28;20200;-75
2020/12/26 04:09:22;;;;;;;2.50;1.50;;;3.40;99.90;;;;;;4996391;28;20251;-75
2020/12/26 04:11:49;;;;;;;2.47;1.60;;;3.20;99.90;;;;;;4996134;28;20263;-75
2020/12/26 04:14:15;;;;;;;2.70;1.30;;;3.10;99.90;;;;;;4996005;28;20216;-74
2020/12/26 04:16:42;;;;;;;2.80;1.20;;;3.00;99.90;;;;;;4996215;28;20212;-75
2020/12/26 04:19:08;;;;;;;3.00;0.97;;;2.90;99.90;;;;;;4996462;28;20205;-75
2020/12/26 04:21:35;;;;;;;1.97;0.93;;;2.90;99.90;;;;;;4996081;28;20207;-75
2020/12/26 04:24:02;;;;;;;3.73;1.73;;;2.90;99.90;;;;;;4995819;28;20217;-75
2020/12/26 04:26:28;;;;;;;3.10;1.20;;;3.00;99.90;;;;;;4995880;28;20569;-75
2020/12/26 04:28:56;;;;;;;2.23;1.30;;;3.00;99.90;;;;;;4995696;28;20239;-75
2020/12/26 04:31:23;;;;;;;1.70;1.03;;;3.00;99.90;;;;;;4995648;28;20759;-75
2020/12/26 04:33:49;;;;;;;2.37;1.63;;;2.90;99.90;;;;;;4995696;28;20205;-75
2020/12/26 04:36:16;;;;;;;3.90;1.37;;;2.80;99.90;;;;;;4995903;28;20282;-75
2020/12/26 04:38:42;;;;;;;3.10;1.63;;;2.70;99.90;;;;;;4995943;28;20209;-75
2020/12/26 04:41:10;;;;;;;4.50;1.30;;;2.70;99.90;;;;;;4995694;28;20665;-75
2020/12/26 04:43:36;;;;;;;3.03;1.37;;;2.70;99.90;;;;;;4995599;28;20209;-75
2020/12/26 04:46:12;;;;;;;4.60;2.03;;;2.90;99.90;;;;;;4995461;28;20581;-75
2020/12/26 04:48:44;;;;;;;4.50;1.60;;;2.90;99.90;;;;;;4995218;28;20236;-75
2020/12/26 04:51:17;;;;;;;5.30;1.53;;;2.90;99.90;;;;;;4995717;28;20262;-75
2020/12/26 04:53:45;;;;;;;1.90;1.30;;;3.00;99.90;;;;;;4995573;28;20243;-75
2020/12/26 04:56:19;;;;;;;5.20;1.17;;;3.00;99.90;;;;;;4995580;28;20205;-75
2020/12/26 04:58:49;;;;;;;5.27;1.20;;;3.00;99.90;;;;;;4995343;28;20580;-75
2020/12/26 05:01:16;;;;;;;2.93;1.30;;;2.90;99.90;;;;;;4995294;28;20208;-75
2020/12/26 05:03:44;;;;;;;8.27;1.80;;;2.90;99.90;;;;;;4995599;28;20208;-75
2020/12/26 05:06:13;;;;;;;3.47;1.57;;;2.90;99.90;;;;;;4995482;28;20209;-75
2020/12/26 05:08:40;;;;;;;3.60;1.57;;;2.80;99.90;;;;;;4995060;28;20700;-75
2020/12/26 05:11:06;;;;;;;5.77;1.70;;;2.60;99.90;;;;;;4994950;28;20275;-75
2020/12/26 05:13:42;;;;;;;3.20;1.43;;;2.50;99.90;;;;;;4995188;28;20261;-75
2020/12/26 05:16:09;;;;;;;5.13;1.70;;;2.50;99.90;;;;;;4994597;28;20205;-75
2020/12/26 05:18:37;;;;;;;2.93;1.93;;;2.70;99.90;;;;;;4994896;28;20723;-75
2020/12/26 05:21:04;;;;;;;6.10;1.90;;;2.70;99.90;;;;;;4994846;28;20204;-75
2020/12/26 05:23:30;;;;;;;4.40;1.70;;;2.80;99.90;;;;;;4994687;28;20267;-75
2020/12/26 05:25:56;;;;;;;7.30;1.70;;;2.80;99.90;;;;;;4995005;28;20213;-75
2020/12/26 05:28:27;;;;;;;3.97;1.90;;;2.70;99.90;;;;;;4994621;28;20603;-75
2020/12/26 05:30:54;;;;;;;2.37;1.40;;;2.70;99.90;;;;;;4994640;28;20247;-75
2020/12/26 05:33:21;;;;;;;3.43;1.43;;;2.80;99.90;;;;;;4994672;28;20260;-75
2020/12/26 05:35:49;;;;;;;3.83;2.10;;;2.80;99.90;;;;;;4994549;28;20216;-75
2020/12/26 05:38:21;;;;;;;3.60;2.07;;;2.80;99.90;;;;;;4994829;28;20706;-75
2020/12/26 05:40:48;;;;;;;5.10;1.67;;;2.80;99.90;;;;;;4994518;28;20585;-75
2020/12/26 05:43:17;;;;;;;6.40;1.50;;;2.70;99.90;;;;;;4994824;28;20205;-75
2020/12/26 05:45:43;;;;;;;6.03;2.33;;;2.80;99.90;;;;;;4994762;28;20576;-75
2020/12/26 05:48:12;;;;;;;4.77;1.77;;;2.80;99.90;;;;;;4994360;28;20264;-75
2020/12/26 05:50:40;;;;;;;9.40;1.53;;;2.80;99.90;;;;;;4994288;28;20201;-75
2020/12/26 05:53:08;;;;;;;8.53;1.87;;;2.80;99.90;;;;;;4994267;28;20623;-75
2020/12/26 05:55:41;;;;;;;2.93;1.40;;;2.80;99.90;;;;;;4994142;28;20208;-75
2020/12/26 05:58:08;;;;;;;7.67;2.03;;;2.80;99.90;;;;;;4994226;28;20653;-75
2020/12/26 06:00:36;;;;;;;6.77;1.53;;;2.80;99.90;;;;;;4994081;28;20209;-75
2020/12/26 06:03:23;;;;;;;2.63;1.27;;;2.70;99.90;;;;;;4994088;28;20591;-75
2020/12/26 06:05:51;;;;;;;2.57;1.40;;;2.70;99.90;;;;;;4994128;28;20358;-75
2020/12/26 06:08:18;;;;;;;2.03;1.40;;;2.70;99.90;;;;;;4994404;28;20236;-75
2020/12/26 06:10:49;;;;;;;6.37;1.80;;;2.70;99.90;;;;;;4994216;28;20240;-75
2020/12/26 06:13:18;;;;;;;4.77;1.77;;;2.60;99.90;;;;;;4994207;28;20212;-75
2020/12/26 06:15:50;;;;;;;5.37;2.03;;;2.60;99.90;;;;;;4994114;28;20215;-75
2020/12/26 06:18:19;;;;;;;3.27;1.77;;;2.60;99.90;;;;;;4993947;28;20311;-75
2020/12/26 06:20:47;;;;;;;5.63;1.60;;;2.60;99.90;;;;;;4993979;28;20205;-75
2020/12/26 06:23:22;;;;;;;5.10;3.10;;;2.60;99.90;;;;;;4993796;28;20223;-75
2020/12/26 06:25:49;;;;;;;3.87;1.90;;;2.60;99.90;;;;;;4993829;28;20203;-75
2020/12/26 06:28:25;;;;;;;6.47;1.90;;;2.70;99.90;;;;;;4993341;28;20290;-74
2020/12/26 06:30:53;;;;;;;2.03;1.20;;;2.60;99.90;;;;;;4993620;28;20214;-76
2020/12/26 06:33:23;;;;;;;4.23;1.90;;;2.50;99.90;;;;;;4993771;28;20664;-75
2020/12/26 06:35:51;;;;;;;4.83;1.80;;;2.50;99.90;;;;;;4993683;28;20212;-75
2020/12/26 06:38:19;;;;;;;5.50;1.93;;;2.50;99.90;;;;;;4993616;28;20204;-77
2020/12/26 06:40:54;;;;;;;2.87;1.57;;;2.50;99.90;;;;;;4993630;28;20205;-77
2020/12/26 06:43:42;;;;;;;5.67;2.23;;;2.50;99.90;;;;;;4993237;28;20211;-77
2020/12/26 06:46:10;;;;;;;5.47;2.40;;;2.50;99.90;;;;;;4993360;28;20205;-77
2020/12/26 06:48:36;;;;;;;8.87;3.00;;;2.40;99.90;;;;;;4993071;28;20770;-77
2020/12/26 06:51:24;;;;;;;4.03;1.63;;;2.30;99.90;;;;;;4993086;28;20673;-77
2020/12/26 06:53:51;;;;;;;4.33;2.17;;;2.30;99.90;;;;;;4993444;28;20205;-77
2020/12/26 06:56:48;;;;;;;5.23;1.80;;;2.10;99.90;;;;;;4993314;28;20213;-77
2020/12/26 06:59:15;;;;;;;4.30;1.50;;;2.00;99.90;;;;;;4993028;28;20216;-77
2020/12/26 07:01:43;;;;;;;2.83;1.60;;;1.90;99.90;;;;;;4993077;28;20575;-77
2020/12/26 07:04:15;;;;;;;4.00;1.60;;;1.80;99.90;;;;;;4992952;28;20260;-77
2020/12/26 07:06:43;;;;;;;5.27;2.47;;;1.80;99.90;;;;;;4992914;28;20640;-77
2020/12/26 07:09:11;;;;;;;3.10;1.77;;;1.70;99.90;;;;;;4992883;28;20259;-77
2020/12/26 07:11:45;;;;;;;5.37;2.07;;;1.70;99.90;;;;;;4992794;28;20672;-77
2020/12/26 07:14:31;;;;;;;2.93;1.63;;;1.70;99.90;;;;;;4993074;28;20212;-77
2020/12/26 07:16:58;;;;;;;4.47;1.90;;;1.70;99.90;;;;;;4992749;28;20204;-77
2020/12/26 07:19:38;;;;;;;3.37;2.10;;;1.70;99.90;;;;;;4992878;28;20689;-77
2020/12/26 07:22:16;;;;;;;5.30;1.73;;;1.70;99.90;;;;;;4992568;28;20542;-77
2020/12/26 07:24:45;;;;;;;8.37;1.87;;;1.80;99.90;;;;;;4992515;28;20208;-77
2020/12/26 07:27:26;;;;;;;3.00;1.87;;;1.80;99.90;;;;;;4992784;28;20574;-77
2020/12/26 07:30:10;;;;;;;4.17;1.90;;;1.80;99.90;;;;;;4992897;28;20288;-77
2020/12/26 07:32:48;;;;;;;4.03;2.17;;;1.80;99.90;;;;;;4992494;28;20669;-77
2020/12/26 07:35:42;;;;;;;5.10;2.47;;;1.80;99.90;;;;;;4992308;28;20788;-77
2020/12/26 07:38:11;;;;;;;7.00;1.93;;;1.70;99.90;;;;;;4992267;28;20207;-77
2020/12/26 07:40:39;;;;;;;5.83;2.23;;;1.70;99.90;;;;;;4992290;28;20568;-77
2020/12/26 07:43:08;;;;;;;3.47;1.73;;;1.60;99.90;;;;;;4992274;28;20205;-77
2020/12/26 07:45:37;;;;;;;6.87;3.10;;;1.60;99.90;;;;;;4992520;28;20220;-78
2020/12/26 07:48:05;;;;;;;3.60;2.30;;;1.60;99.90;;;;;;4992437;28;20311;-77
2020/12/26 07:50:33;;;;;;;4.43;2.30;;;1.50;99.90;;;;;;4992396;28;20234;-77
2020/12/26 07:53:01;;;;;;;4.60;2.33;;;1.50;99.90;;;;;;4992307;28;20209;-77
2020/12/26 07:55:29;;;;;;;3.83;2.47;;;1.60;99.90;;;;;;4992162;28;20209;-77
2020/12/26 07:58:06;;;;;;;5.27;2.07;;;1.60;99.90;;;;;;4992513;28;20257;-77
2020/12/26 08:00:35;;;;;;;3.47;1.80;;;1.60;99.90;;;;;;4992411;28;20204;-77
2020/12/26 08:03:04;;;;;;;12.73;2.43;;;1.60;99.90;;;;;;4992402;28;20205;-77
2020/12/26 08:05:31;;;;;;;5.80;2.73;;;1.60;99.90;;;;;;4992101;28;20684;-77
2020/12/26 08:07:58;;;;;;;6.83;2.27;;;1.60;99.90;;;;;;4992036;28;20236;-77
2020/12/26 08:10:26;;;;;;;4.77;2.83;;;1.60;99.90;;;;;;4992310;28;20560;-76
2020/12/26 08:12:56;;;;;;;5.63;2.03;;;1.70;99.90;;;;;;4992646;28;20211;-77
2020/12/26 08:15:27;;;;;;;4.60;2.17;;;1.70;99.90;;;;;;4992549;28;20208;-77
2020/12/26 08:17:57;;;;;;;4.00;2.20;;;1.70;99.90;;;;;;4992354;28;20577;-77
2020/12/26 08:20:25;;;;;;;9.17;3.17;;;1.70;99.90;;;;;;4992279;28;20205;-77
2020/12/26 08:22:52;;;;;;;5.50;2.50;;;1.90;99.90;;;;;;4992458;28;20216;-77
2020/12/26 08:25:20;;;;;;;5.70;1.30;;;3.00;99.90;;;;;;4992200;28;20267;-77
2020/12/26 08:27:47;;;;;;;4.07;1.80;;;3.40;99.90;;;;;;4991954;28;20235;-77
2020/12/26 08:30:17;;;;;;;5.90;2.90;;;3.50;99.90;;;;;;4992120;28;20260;-77
2020/12/26 08:32:52;;;;;;;3.67;2.40;;;5.10;99.90;;;;;;4991931;28;20208;-77
2020/12/26 08:35:21;;;;;;;8.03;2.40;;;6.00;99.90;;;;;;4991980;28;20208;-77
2020/12/26 08:37:53;;;;;;;7.03;2.77;;;5.40;99.90;;;;;;4991749;28;20277;-74
2020/12/26 08:40:20;;;;;;;6.27;2.43;;;5.60;99.90;;;;;;4991770;28;20216;-74
2020/12/26 08:42:46;;;;;;;3.80;1.80;;;5.80;99.90;;;;;;4991766;28;20751;-74
2020/12/26 08:45:31;;;;;;;6.13;1.80;;;6.10;99.90;;;;;;4991774;28;20201;-74
2020/12/26 08:48:01;;;;;;;2.97;1.67;;;6.20;99.90;;;;;;4991640;28;20696;-75
2020/12/26 08:50:29;;;;;;;5.90;1.77;;;5.60;99.90;;;;;;4993256;28;20208;-74
2020/12/26 08:53:07;;;;;;;1.57;1.20;;;4.50;99.90;;;;;;4995682;28;20213;-74
2020/12/26 08:55:48;;;;;;;7.90;2.40;;;4.30;99.90;;;;;;4995407;28;20200;-75
2020/12/26 08:58:29;;;;;;;3.90;1.83;;;4.30;99.90;;;;;;4995024;28;20200;-74
2020/12/26 09:00:58;;;;;;;4.57;1.97;;;5.50;99.90;;;;;;4995884;28;20235;-74
2020/12/26 09:03:27;;;;;;;4.87;2.30;;;6.80;99.90;;;;;;4995589;28;20213;-74
2020/12/26 09:05:55;;;;;;;8.63;2.93;;;6.90;99.90;;;;;;4995524;28;20263;-74
2020/12/26 09:08:27;;;;;;;5.63;2.33;;;6.70;99.90;;;;;;4994892;28;20229;-74
2020/12/26 09:10:59;;;;;;;3.03;1.97;;;6.90;99.90;;;;;;4995420;28;20205;-74
2020/12/26 09:13:34;;;;;;;8.40;3.20;;;7.80;99.90;;;;;;4995418;28;20574;-75
2020/12/26 09:16:06;;;;;;;4.93;2.47;;;8.60;99.90;;;;;;4994918;28;20660;-74
2020/12/26 09:18:41;;;;;;;3.67;2.13;;;9.10;99.90;;;;;;4994812;28;20571;-74
2020/12/26 09:21:09;;;;;;;4.17;1.90;;;10.70;99.90;;;;;;4994900;28;20754;-78
2020/12/26 09:23:37;;;;;;;4.47;2.60;;;11.90;99.90;;;;;;4994723;28;20681;-77
2020/12/26 09:26:14;;;;;;;4.20;2.10;;;12.20;99.90;;;;;;4994990;28;20260;-77
2020/12/26 09:28:49;;;;;;;3.67;1.77;;;12.20;99.90;;;;;;4994665;28;20236;-77
2020/12/26 09:31:19;;;;;;;4.53;1.90;;;11.50;99.90;;;;;;4994616;28;20700;-77
2020/12/26 09:33:45;;;;;;;4.93;1.87;;;10.10;99.90;;;;;;4994908;28;20205;-78
2020/12/26 09:36:14;;;;;;;4.07;1.83;;;9.60;99.90;;;;;;4994735;28;20258;-77
2020/12/26 09:38:40;;;;;;;3.63;2.07;;;9.90;99.90;;;;;;4994522;28;20216;-77
2020/12/26 09:41:11;;;;;;;4.43;1.93;;;10.90;99.90;;;;;;4994571;28;20236;-77
2020/12/26 09:43:38;;;;;;;3.63;1.60;;;10.60;99.90;;;;;;4994524;28;20686;-78
2020/12/26 09:46:05;;;;;;;7.70;2.40;;;11.50;99.90;;;;;;4994331;28;20201;-78
2020/12/26 09:48:32;;;;;;;3.20;1.77;;;11.70;99.90;;;;;;4994550;28;20240;-77
2020/12/26 09:50:59;;;;;;;2.50;1.60;;;12.10;99.90;;;;;;4994741;28;20208;-78
2020/12/26 09:53:25;;;;;;;3.23;1.77;;;12.60;99.90;;;;;;4994627;28;20204;-74
2020/12/26 09:55:52;;;;;;;1.93;1.67;;;12.50;99.90;;;;;;4994331;28;20205;-74
2020/12/26 09:58:18;;;;;;;2.43;1.97;;;13.20;99.90;;;;;;4994172;28;20201;-76
2020/12/26 10:00:45;;;;;;;3.13;1.65;;;13.30;99.90;;;;;;4993787;28;20703;-75
2020/12/26 10:03:11;;;;;;;3.27;1.30;;;13.10;99.90;;;;;;4993311;28;20244;-75
2020/12/26 10:05:39;;;;;;;3.55;1.25;;;13.00;99.90;;;;;;4994214;28;20579;-75
2020/12/26 10:08:05;;;;;;;2.20;1.40;;;12.90;99.90;;;;;;4994018;28;20231;-74
2020/12/26 10:10:31;;;;;;;3.43;1.90;;;13.50;99.90;;;;;;4994067;28;20576;-75
2020/12/26 10:12:58;;;;;;;3.38;1.23;;;13.50;99.90;;;;;;4994087;28;20204;-75
2020/12/26 10:15:24;;;;;;;5.60;1.83;;;13.10;99.90;;;;;;4994086;28;20243;-75
2020/12/26 10:17:51;;;;;;;3.03;1.83;;;13.00;99.90;;;;;;4994042;28;20213;-75
2020/12/26 10:20:17;;;;;;;2.63;1.60;;;13.30;99.90;;;;;;4993921;28;20216;-75
2020/12/26 10:22:44;;;;;;;5.30;1.47;;;12.80;99.90;;;;;;4993679;28;20213;-75
2020/12/26 10:25:11;;;;;;;2.23;1.43;;;12.70;99.90;;;;;;4993685;28;20209;-77
2020/12/26 10:27:37;;;;;;;4.70;2.10;;;13.70;99.90;;;;;;4993442;28;20205;-78
2020/12/26 10:30:04;;;;;;;2.20;1.40;;;13.10;99.90;;;;;;4993788;28;20688;-77
2020/12/26 10:32:30;;;;;;;3.07;1.23;;;12.70;99.90;;;;;;4993811;28;20746;-78
2020/12/26 10:34:57;;;;;;;3.80;1.60;;;12.30;99.90;;;;;;4993449;28;20215;-78
2020/12/26 10:37:23;;;;;;;3.33;1.53;;;11.60;99.90;;;;;;4993437;28;20220;-78
2020/12/26 10:39:51;;;;;;;4.93;2.40;;;12.10;99.90;;;;;;4993309;28;20219;-78
2020/12/26 10:42:18;;;;;;;2.87;1.17;;;12.30;99.90;;;;;;4993310;28;20267;-78
2020/12/26 10:44:44;;;;;;;3.60;1.57;;;13.20;99.90;;;;;;4993307;28;20677;-78
2020/12/26 10:47:10;;;;;;;2.57;1.83;;;12.50;99.90;;;;;;4993436;28;20232;-77
2020/12/26 10:49:37;;;;;;;4.83;2.10;;;9.40;99.90;;;;;;4993150;28;20241;-75
2020/12/26 10:52:03;;;;;;;3.00;1.60;;;7.30;99.90;;;;;;4993327;28;20204;-75
2020/12/26 10:54:30;;;;;;;1.67;0.87;;;6.50;99.90;;;;;;4993424;28;20204;-75
2020/12/26 10:56:57;;;;;;;2.80;0.97;;;6.00;99.90;;;;;;4993155;28;20232;-76
2020/12/26 10:59:23;;;;;;;3.67;1.10;;;5.90;99.90;;;;;;4993263;28;20614;-75
2020/12/26 11:01:50;;;;;;;2.87;1.13;;;5.80;99.90;;;;;;4993178;28;20232;-75
2020/12/26 11:04:16;;;;;;;7.57;1.50;;;5.60;99.90;;;;;;4992969;28;20216;-75
2020/12/26 11:06:48;;;;;;;2.80;1.00;;;5.50;99.90;;;;;;4993009;28;20205;-75
2020/12/26 11:09:15;;;;;;;3.20;1.10;;;5.60;99.90;;;;;;4992741;28;20319;-75
2020/12/26 11:11:46;;;;;;;3.37;1.20;;;5.80;99.90;;;;;;4993058;28;20201;-76
2020/12/26 11:14:14;;;;;;;2.40;0.93;;;5.50;99.90;;;;;;4992543;28;20278;-74
2020/12/26 11:16:41;;;;;;;2.60;1.10;;;5.70;99.90;;;;;;4992870;28;20205;-74
2020/12/26 11:19:07;;;;;;;3.33;2.10;;;5.70;99.90;;;;;;4992794;28;20260;-75
2020/12/26 11:21:33;;;;;;;1.90;1.60;;;5.60;99.90;;;;;;4993147;28;20329;-74
2020/12/26 11:24:00;;;;;;;2.93;1.17;;;5.80;99.90;;;;;;4992387;28;20220;-75
2020/12/26 11:26:27;;;;;;;1.70;0.87;;;6.10;99.90;;;;;;4992542;28;20205;-74
2020/12/26 11:28:53;;;;;;;4.13;1.93;;;6.20;99.90;;;;;;4992640;28;20236;-74
2020/12/26 11:31:25;;;;;;;4.83;1.30;;;6.20;99.90;;;;;;4992419;28;20719;-74
2020/12/26 11:33:51;;;;;;;3.47;1.27;;;6.20;99.90;;;;;;4992533;28;20204;-74
2020/12/26 11:36:19;;;;;;;1.83;0.73;;;6.30;99.90;;;;;;4992356;28;20792;-74
2020/12/26 11:38:46;;;;;;;2.57;0.90;;;6.40;99.90;;;;;;4992268;28;20206;-74
2020/12/26 11:41:15;;;;;;;1.50;0.90;;;6.60;99.90;;;;;;4992522;28;20212;-74
2020/12/26 11:43:42;;;;;;;2.37;0.90;;;6.50;99.90;;;;;;4992533;28;20215;-74
2020/12/26 11:46:09;;;;;;;1.60;1.00;;;6.50;99.90;;;;;;4992297;28;20695;-75
2020/12/26 11:48:36;;;;;;;3.10;1.10;;;6.50;99.90;;;;;;4992656;28;20609;-74
2020/12/26 11:51:03;;;;;;;6.83;1.40;;;6.70;99.90;;;;;;4992559;28;20213;-74
2020/12/26 11:53:29;;;;;;;5.00;1.07;;;6.70;99.90;;;;;;4992452;28;20212;-74
2020/12/26 11:55:56;;;;;;;3.10;1.43;;;6.70;99.90;;;;;;4992379;28;20205;-74
2020/12/26 11:58:23;;;;;;;1.60;0.80;;;6.80;99.90;;;;;;4992360;28;20207;-74
2020/12/26 12:00:50;;;;;;;1.30;0.70;;;6.70;99.90;;;;;;4992291;28;20201;-76
2020/12/26 12:03:17;;;;;;;2.20;1.50;;;6.60;99.90;;;;;;4992263;28;20653;-74
2020/12/26 12:05:44;;;;;;;2.00;1.10;;;6.80;99.90;;;;;;4992064;28;20209;-74
2020/12/26 12:08:11;;;;;;;1.30;0.70;;;6.90;99.90;;;;;;4992080;28;20225;-74
2020/12/26 12:10:39;;;;;;;1.70;0.50;;;6.70;99.90;;;;;;4992374;28;20212;-74
2020/12/26 12:13:05;;;;;;;2.23;1.03;;;6.60;99.90;;;;;;4992470;28;20200;-74
2020/12/26 12:15:32;;;;;;;2.33;1.27;;;6.50;99.90;;;;;;4992210;28;20216;-74
2020/12/26 12:18:00;;;;;;;1.33;0.70;;;6.60;99.90;;;;;;4992004;28;20212;-74
2020/12/26 12:20:26;;;;;;;2.17;0.60;;;6.60;99.90;;;;;;4992295;28;20641;-74
2020/12/26 12:22:54;;;;;;;1.07;0.90;;;6.50;99.90;;;;;;4992064;28;20212;-74
2020/12/26 12:25:20;;;;;;;10.03;1.07;;;6.70;99.90;;;;;;4993539;28;20239;-74
2020/12/26 12:27:47;;;;;;;1.20;0.60;;;6.60;99.90;;;;;;4995745;28;20673;-74
2020/12/26 12:30:13;;;;;;;2.10;0.63;;;6.50;99.90;;;;;;4995817;28;20250;-74
2020/12/26 12:32:40;;;;;;;4.10;0.97;;;6.50;99.90;;;;;;4995779;28;20592;-74
2020/12/26 12:35:06;;;;;;;4.43;0.80;;;6.30;99.90;;;;;;4996326;28;20204;-74
2020/12/26 12:37:33;;;;;;;4.00;1.10;;;6.40;99.90;;;;;;4995795;28;20201;-74
2020/12/26 12:40:00;;;;;;;0.73;0.43;;;6.70;99.90;;;;;;4995680;28;20236;-74
2020/12/26 12:42:28;;;;;;;3.30;0.97;;;7.00;99.90;;;;;;4995817;28;20287;-76
2020/12/26 12:44:54;;;;;;;2.30;0.90;;;7.30;99.90;;;;;;4995649;28;20205;-74
2020/12/26 12:47:22;;;;;;;2.60;0.80;;;7.30;99.90;;;;;;4995481;28;20688;-74
2020/12/26 12:49:49;;;;;;;2.77;1.07;;;7.50;99.90;;;;;;4995420;28;20240;-75
2020/12/26 12:52:15;;;;;;;5.07;1.27;;;7.30;99.90;;;;;;4995644;28;20208;-74
2020/12/26 12:54:42;;;;;;;2.03;0.67;;;7.20;99.90;;;;;;4995569;28;20205;-74
2020/12/26 12:57:09;;;;;;;2.37;0.73;;;6.90;99.90;;;;;;4995698;28;20590;-75
2020/12/26 12:59:36;;;;;;;0.87;0.50;;;7.00;99.90;;;;;;4995592;28;20211;-76
2020/12/26 13:02:03;;;;;;;2.73;0.80;;;7.00;99.90;;;;;;4995204;28;20217;-76